Terminal Aerodrome Forecast
Issued by NWS Sterling, VA

Current Version | Previous Version | Graphics & Text | Print | Product List | Glossary On
Versions: 1 2 3 4 5 6 7 8 9 10 11 12 13 14 15 16 17 18 19 20 21 22 23 24
000
FTUS41 KLWX 182100 AAA
TAFDCA
TAF AMD
KDCA 182123Z 1821/1918 15006KT P6SM SCT050
     FM190300 13004KT P6SM BKN015 OVC050
     FM190600 08005KT P6SM OVC008
     FM191400 06007KT P6SM BKN015 BKN050=

USA.gov is the U.S. government's official web portal to all federal, state and local government web resources and services.